sensor_id;sensor_type;location;lat;lon;timestamp;P1;P2;P0
24012;PMS7003;12220;50.194;18.948;2023-02-22T00:28:56;8;8;5
24012;PMS7003;12220;50.194;18.948;2023-02-22T00:31:09;8;8;7
24012;PMS7003;12220;50.194;18.948;2023-02-22T00:33:11;9;9;7
24012;PMS7003;12220;50.194;18.948;2023-02-22T00:35:14;9;9;5
24012;PMS7003;12220;50.194;18.948;2023-02-22T00:37:17;11;10;5
24012;PMS7003;12220;50.194;18.948;2023-02-22T00:39:19;12;11;7
24012;PMS7003;12220;50.194;18.948;2023-02-22T00:41:22;8;8;7
24012;PMS7003;12220;50.194;18.948;2023-02-22T00:43:24;12;7;6
24012;PMS7003;12220;50.194;18.948;2023-02-22T00:45:27;9;8;7
24012;PMS7003;12220;50.194;18.948;2023-02-22T00:47:31;8;6;4
24012;PMS7003;12220;50.194;18.948;2023-02-22T00:49:37;10;8;6
24012;PMS7003;12220;50.194;18.948;2023-02-22T00:51:39;6;5;5
24012;PMS7003;12220;50.194;18.948;2023-02-22T00:53:40;5;5;3
24012;PMS7003;12220;50.194;18.948;2023-02-22T00:55:42;11;8;6
24012;PMS7003;12220;50.194;18.948;2023-02-22T00:57:52;7;7;5
24012;PMS7003;12220;50.194;18.948;2023-02-22T00:59:57;12;11;6
24012;PMS7003;12220;50.194;18.948;2023-02-22T01:01:58;9;7;5
24012;PMS7003;12220;50.194;18.948;2023-02-22T01:03:59;9;8;6
24012;PMS7003;12220;50.194;18.948;2023-02-22T01:06:07;8;7;4
24012;PMS7003;12220;50.194;18.948;2023-02-22T01:08:10;11;11;6
24012;PMS7003;12220;50.194;18.948;2023-02-22T01:10:13;6;6;5
24012;PMS7003;12220;50.194;18.948;2023-02-22T01:12:15;14;7;4
24012;PMS7003;12220;50.194;18.948;2023-02-22T01:14:23;10;8;5
24012;PMS7003;12220;50.194;18.948;2023-02-22T01:16:29;12;9;6
24012;PMS7003;12220;50.194;18.948;2023-02-22T01:18:30;7;7;5
24012;PMS7003;12220;50.194;18.948;2023-02-22T01:20:32;6;5;4
24012;PMS7003;12220;50.194;18.948;2023-02-22T01:22:41;8;7;5
24012;PMS7003;12220;50.194;18.948;2023-02-22T01:24:47;9;6;3
24012;PMS7003;12220;50.194;18.948;2023-02-22T01:26:49;15;10;7
24012;PMS7003;12220;50.194;18.948;2023-02-22T01:28:52;7;7;5
24012;PMS7003;12220;50.194;18.948;2023-02-22T01:30:54;6;6;5
24012;PMS7003;12220;50.194;18.948;2023-02-22T01:32:56;7;7;4
24012;PMS7003;12220;50.194;18.948;2023-02-22T01:37:31;4;4;4
24012;PMS7003;12220;50.194;18.948;2023-02-22T01:39:32;10;9;4
24012;PMS7003;12220;50.194;18.948;2023-02-22T01:41:45;9;6;5
24012;PMS7003;12220;50.194;18.948;2023-02-22T01:43:46;6;6;5
24012;PMS7003;12220;50.194;18.948;2023-02-22T01:48:05;7;6;5
24012;PMS7003;12220;50.194;18.948;2023-02-22T01:50:09;10;8;6
24012;PMS7003;12220;50.194;18.948;2023-02-22T01:52:19;5;5;3
24012;PMS7003;12220;50.194;18.948;2023-02-22T01:54:29;10;6;5
24012;PMS7003;12220;50.194;18.948;2023-02-22T01:56:37;9;6;5
24012;PMS7003;12220;50.194;18.948;2023-02-22T01:58:42;9;7;5
24012;PMS7003;12220;50.194;18.948;2023-02-22T02:00:50;8;7;6
24012;PMS7003;12220;50.194;18.948;2023-02-22T02:03:03;8;7;4
24012;PMS7003;12220;50.194;18.948;2023-02-22T02:05:09;6;6;5
24012;PMS7003;12220;50.194;18.948;2023-02-22T02:07:12;9;6;4
24012;PMS7003;12220;50.194;18.948;2023-02-22T02:09:36;10;9;6
24012;PMS7003;12220;50.194;18.948;2023-02-22T02:11:33;11;9;6
24012;PMS7003;12220;50.194;18.948;2023-02-22T02:13:38;8;5;3
24012;PMS7003;12220;50.194;18.948;2023-02-22T02:15:41;11;9;6
24012;PMS7003;12220;50.194;18.948;2023-02-22T02:17:42;5;5;4
24012;PMS7003;12220;50.194;18.948;2023-02-22T02:19:46;10;9;7
24012;PMS7003;12220;50.194;18.948;2023-02-22T02:33:49;6;4;3
24012;PMS7003;12220;50.194;18.948;2023-02-22T02:36:07;9;9;6
24012;PMS7003;12220;50.194;18.948;2023-02-22T02:40:51;6;5;4
24012;PMS7003;12220;50.194;18.948;2023-02-22T02:43:11;7;4;3
24012;PMS7003;12220;50.194;18.948;2023-02-22T02:47:51;9;5;5
24012;PMS7003;12220;50.194;18.948;2023-02-22T02:52:13;6;5;4
24012;PMS7003;12220;50.194;18.948;2023-02-22T02:54:18;6;4;3
24012;PMS7003;12220;50.194;18.948;2023-02-22T02:56:22;10;8;5
24012;PMS7003;12220;50.194;18.948;2023-02-22T02:58:24;8;6;5
24012;PMS7003;12220;50.194;18.948;2023-02-22T03:00:27;7;6;4
24012;PMS7003;12220;50.194;18.948;2023-02-22T03:07:14;9;6;6
24012;PMS7003;12220;50.194;18.948;2023-02-22T03:11:41;12;8;6
24012;PMS7003;12220;50.194;18.948;2023-02-22T03:18:45;6;6;4
24012;PMS7003;12220;50.194;18.948;2023-02-22T03:23:26;9;8;5
24012;PMS7003;12220;50.194;18.948;2023-02-22T03:25:34;8;8;6
24012;PMS7003;12220;50.194;18.948;2023-02-22T03:29:57;11;5;4
24012;PMS7003;12220;50.194;18.948;2023-02-22T03:32:06;6;6;5
24012;PMS7003;12220;50.194;18.948;2023-02-22T03:36:31;6;6;4
24012;PMS7003;12220;50.194;18.948;2023-02-22T03:38:39;14;6;5
24012;PMS7003;12220;50.194;18.948;2023-02-22T03:40:44;8;6;5
24012;PMS7003;12220;50.194;18.948;2023-02-22T03:42:53;6;6;4
24012;PMS7003;12220;50.194;18.948;2023-02-22T04:02:07;8;8;6
24012;PMS7003;12220;50.194;18.948;2023-02-22T04:04:09;9;6;5
24012;PMS7003;12220;50.194;18.948;2023-02-22T04:06:19;5;5;4
24012;PMS7003;12220;50.194;18.948;2023-02-22T04:08:20;3;3;2
24012;PMS7003;12220;50.194;18.948;2023-02-22T04:10:22;6;6;4
24012;PMS7003;12220;50.194;18.948;2023-02-22T04:12:24;7;6;5
24012;PMS7003;12220;50.194;18.948;2023-02-22T04:14:34;9;9;7
24012;PMS7003;12220;50.194;18.948;2023-02-22T04:16:36;10;8;5
24012;PMS7003;12220;50.194;18.948;2023-02-22T04:18:37;6;5;3
24012;PMS7003;12220;50.194;18.948;2023-02-22T04:20:38;7;7;5
24012;PMS7003;12220;50.194;18.948;2023-02-22T04:22:49;9;7;5
24012;PMS7003;12220;50.194;18.948;2023-02-22T04:24:52;9;8;6
24012;PMS7003;12220;50.194;18.948;2023-02-22T04:26:54;7;6;4
24012;PMS7003;12220;50.194;18.948;2023-02-22T04:28:56;12;8;5
24012;PMS7003;12220;50.194;18.948;2023-02-22T04:31:04;8;7;5
24012;PMS7003;12220;50.194;18.948;2023-02-22T04:33:05;9;6;4
24012;PMS7003;12220;50.194;18.948;2023-02-22T04:35:07;7;5;4
24012;PMS7003;12220;50.194;18.948;2023-02-22T04:37:09;6;6;5
24012;PMS7003;12220;50.194;18.948;2023-02-22T04:39:19;10;10;7
24012;PMS7003;12220;50.194;18.948;2023-02-22T04:41:20;8;8;5
24012;PMS7003;12220;50.194;18.948;2023-02-22T04:43:22;11;9;6
24012;PMS7003;12220;50.194;18.948;2023-02-22T04:45:25;7;7;5
24012;PMS7003;12220;50.194;18.948;2023-02-22T04:47:37;7;7;5
24012;PMS7003;12220;50.194;18.948;2023-02-22T04:49:39;6;6;4
24012;PMS7003;12220;50.194;18.948;2023-02-22T04:51:40;12;7;5
24012;PMS7003;12220;50.194;18.948;2023-02-22T04:53:44;4;4;2
24012;PMS7003;12220;50.194;18.948;2023-02-22T04:55:49;9;8;6
24012;PMS7003;12220;50.194;18.948;2023-02-22T04:57:54;14;7;5
24012;PMS7003;12220;50.194;18.948;2023-02-22T04:59:57;9;7;4
24012;PMS7003;12220;50.194;18.948;2023-02-22T05:01:58;10;7;5
24012;PMS7003;12220;50.194;18.948;2023-02-22T05:04:05;13;8;6
24012;PMS7003;12220;50.194;18.948;2023-02-22T05:06:10;10;7;5
24012;PMS7003;12220;50.194;18.948;2023-02-22T05:08:17;9;7;5
24012;PMS7003;12220;50.194;18.948;2023-02-22T05:10:18;8;7;5
24012;PMS7003;12220;50.194;18.948;2023-02-22T05:12:22;9;9;6
24012;PMS7003;12220;50.194;18.948;2023-02-22T05:15:23;11;7;6
24012;PMS7003;12220;50.194;18.948;2023-02-22T05:17:25;9;8;6
24012;PMS7003;12220;50.194;18.948;2023-02-22T05:19:27;8;7;4
24012;PMS7003;12220;50.194;18.948;2023-02-22T05:21:38;10;7;6
24012;PMS7003;12220;50.194;18.948;2023-02-22T05:23:40;12;9;7
24012;PMS7003;12220;50.194;18.948;2023-02-22T05:25:41;18;9;4
24012;PMS7003;12220;50.194;18.948;2023-02-22T05:27:43;9;9;5
24012;PMS7003;12220;50.194;18.948;2023-02-22T05:29:53;9;7;7
24012;PMS7003;12220;50.194;18.948;2023-02-22T05:31:57;13;11;7
24012;PMS7003;12220;50.194;18.948;2023-02-22T05:33:58;9;9;6
24012;PMS7003;12220;50.194;18.948;2023-02-22T05:36:00;10;9;6
24012;PMS7003;12220;50.194;18.948;2023-02-22T05:38:09;16;11;8
24012;PMS7003;12220;50.194;18.948;2023-02-22T05:40:15;14;14;10
24012;PMS7003;12220;50.194;18.948;2023-02-22T05:42:18;8;8;6
24012;PMS7003;12220;50.194;18.948;2023-02-22T05:44:21;16;10;8
24012;PMS7003;12220;50.194;18.948;2023-02-22T05:46:23;19;14;6
24012;PMS7003;12220;50.194;18.948;2023-02-22T05:48:25;13;10;6
24012;PMS7003;12220;50.194;18.948;2023-02-22T05:50:27;14;11;8
24012;PMS7003;12220;50.194;18.948;2023-02-22T05:52:29;9;9;6
24012;PMS7003;12220;50.194;18.948;2023-02-22T05:54:38;11;11;9
24012;PMS7003;12220;50.194;18.948;2023-02-22T05:56:40;11;11;8
24012;PMS7003;12220;50.194;18.948;2023-02-22T05:58:44;14;11;9
24012;PMS7003;12220;50.194;18.948;2023-02-22T06:00:49;14;13;10
24012;PMS7003;12220;50.194;18.948;2023-02-22T06:02:58;16;9;7
24012;PMS7003;12220;50.194;18.948;2023-02-22T06:05:01;12;10;8
24012;PMS7003;12220;50.194;18.948;2023-02-22T06:07:05;13;11;10
24012;PMS7003;12220;50.194;18.948;2023-02-22T06:09:07;15;12;9
24012;PMS7003;12220;50.194;18.948;2023-02-22T06:13:33;18;13;9
24012;PMS7003;12220;50.194;18.948;2023-02-22T06:15:34;14;13;9
24012;PMS7003;12220;50.194;18.948;2023-02-22T06:17:36;12;12;7
24012;PMS7003;12220;50.194;18.948;2023-02-22T06:19:41;16;11;8
24012;PMS7003;12220;50.194;18.948;2023-02-22T06:23:53;13;13;8
24012;PMS7003;12220;50.194;18.948;2023-02-22T06:25:55;21;20;15
24012;PMS7003;12220;50.194;18.948;2023-02-22T06:27:57;19;17;12
24012;PMS7003;12220;50.194;18.948;2023-02-22T06:30:00;19;16;10
24012;PMS7003;12220;50.194;18.948;2023-02-22T06:32:02;22;19;14
24012;PMS7003;12220;50.194;18.948;2023-02-22T06:34:07;19;17;13
24012;PMS7003;12220;50.194;18.948;2023-02-22T06:36:08;15;14;12
24012;PMS7003;12220;50.194;18.948;2023-02-22T06:40:24;18;15;13
24012;PMS7003;12220;50.194;18.948;2023-02-22T06:42:29;16;15;11
24012;PMS7003;12220;50.194;18.948;2023-02-22T06:49:06;17;16;13
24012;PMS7003;12220;50.194;18.948;2023-02-22T06:51:17;21;20;12
24012;PMS7003;12220;50.194;18.948;2023-02-22T06:53:18;24;22;11
24012;PMS7003;12220;50.194;18.948;2023-02-22T06:57:31;21;18;11
24012;PMS7003;12220;50.194;18.948;2023-02-22T06:59:33;22;18;13
24012;PMS7003;12220;50.194;18.948;2023-02-22T07:01:34;18;17;14
24012;PMS7003;12220;50.194;18.948;2023-02-22T07:03:36;37;26;20
24012;PMS7003;12220;50.194;18.948;2023-02-22T07:05:37;44;35;23
24012;PMS7003;12220;50.194;18.948;2023-02-22T07:07:47;52;39;23
24012;PMS7003;12220;50.194;18.948;2023-02-22T07:09:51;46;38;26
24012;PMS7003;12220;50.194;18.948;2023-02-22T07:11:55;43;36;21
24012;PMS7003;12220;50.194;18.948;2023-02-22T07:14:15;41;33;23
24012;PMS7003;12220;50.194;18.948;2023-02-22T07:16:18;42;34;22
24012;PMS7003;12220;50.194;18.948;2023-02-22T07:18:24;46;36;24
24012;PMS7003;12220;50.194;18.948;2023-02-22T07:20:26;50;35;23
24012;PMS7003;12220;50.194;18.948;2023-02-22T07:22:30;47;38;26
24012;PMS7003;12220;50.194;18.948;2023-02-22T07:24:34;46;38;25
24012;PMS7003;12220;50.194;18.948;2023-02-22T07:26:41;47;38;25
24012;PMS7003;12220;50.194;18.948;2023-02-22T07:28:42;44;33;21
24012;PMS7003;12220;50.194;18.948;2023-02-22T07:30:44;55;43;26
24012;PMS7003;12220;50.194;18.948;2023-02-22T07:32:45;53;42;28
24012;PMS7003;12220;50.194;18.948;2023-02-22T07:34:54;54;42;26
24012;PMS7003;12220;50.194;18.948;2023-02-22T07:36:55;59;44;27
24012;PMS7003;12220;50.194;18.948;2023-02-22T07:38:57;57;46;29
24012;PMS7003;12220;50.194;18.948;2023-02-22T07:40:58;55;44;29
24012;PMS7003;12220;50.194;18.948;2023-02-22T07:45:18;52;41;25
24012;PMS7003;12220;50.194;18.948;2023-02-22T07:47:24;58;44;28
24012;PMS7003;12220;50.194;18.948;2023-02-22T07:49:25;63;46;31
24012;PMS7003;12220;50.194;18.948;2023-02-22T07:51:27;65;47;29
24012;PMS7003;12220;50.194;18.948;2023-02-22T07:53:29;65;51;32
24012;PMS7003;12220;50.194;18.948;2023-02-22T07:55:33;57;43;27
24012;PMS7003;12220;50.194;18.948;2023-02-22T07:57:34;58;44;29
24012;PMS7003;12220;50.194;18.948;2023-02-22T07:59:41;61;46;30
24012;PMS7003;12220;50.194;18.948;2023-02-22T08:01:47;69;53;35
24012;PMS7003;12220;50.194;18.948;2023-02-22T08:03:50;69;56;35
24012;PMS7003;12220;50.194;18.948;2023-02-22T08:05:54;75;54;33
24012;PMS7003;12220;50.194;18.948;2023-02-22T08:08:00;71;56;34
24012;PMS7003;12220;50.194;18.948;2023-02-22T08:10:05;76;63;38
24012;PMS7003;12220;50.194;18.948;2023-02-22T08:12:08;77;61;35
24012;PMS7003;12220;50.194;18.948;2023-02-22T08:14:09;76;62;41
24012;PMS7003;12220;50.194;18.948;2023-02-22T08:16:13;74;56;34
24012;PMS7003;12220;50.194;18.948;2023-02-22T08:18:15;74;56;34
24012;PMS7003;12220;50.194;18.948;2023-02-22T08:20:18;74;64;40
24012;PMS7003;12220;50.194;18.948;2023-02-22T08:22:20;73;55;34
24012;PMS7003;12220;50.194;18.948;2023-02-22T08:26:35;72;59;34
24012;PMS7003;12220;50.194;18.948;2023-02-22T08:30:52;70;55;34
24012;PMS7003;12220;50.194;18.948;2023-02-22T08:32:54;64;52;34
24012;PMS7003;12220;50.194;18.948;2023-02-22T08:35:05;70;54;33
24012;PMS7003;12220;50.194;18.948;2023-02-22T08:37:07;66;53;33
24012;PMS7003;12220;50.194;18.948;2023-02-22T08:39:09;66;51;34
24012;PMS7003;12220;50.194;18.948;2023-02-22T08:41:10;65;51;30
24012;PMS7003;12220;50.194;18.948;2023-02-22T08:43:20;68;52;32
24012;PMS7003;12220;50.194;18.948;2023-02-22T08:45:26;69;51;33
24012;PMS7003;12220;50.194;18.948;2023-02-22T08:47:28;64;51;33
24012;PMS7003;12220;50.194;18.948;2023-02-22T08:49:36;66;53;35
24012;PMS7003;12220;50.194;18.948;2023-02-22T08:51:40;63;49;33
24012;PMS7003;12220;50.194;18.948;2023-02-22T08:53:42;64;51;34
24012;PMS7003;12220;50.194;18.948;2023-02-22T08:55:44;63;49;32
24012;PMS7003;12220;50.194;18.948;2023-02-22T08:57:46;68;51;33
24012;PMS7003;12220;50.194;18.948;2023-02-22T08:59:52;62;51;33
24012;PMS7003;12220;50.194;18.948;2023-02-22T09:02:16;61;47;32
24012;PMS7003;12220;50.194;18.948;2023-02-22T09:04:20;53;44;32
24012;PMS7003;12220;50.194;18.948;2023-02-22T09:06:21;72;54;32
24012;PMS7003;12220;50.194;18.948;2023-02-22T09:08:23;64;48;32
24012;PMS7003;12220;50.194;18.948;2023-02-22T09:10:28;62;51;34
24012;PMS7003;12220;50.194;18.948;2023-02-22T09:12:31;71;53;31
24012;PMS7003;12220;50.194;18.948;2023-02-22T09:14:33;61;49;31
24012;PMS7003;12220;50.194;18.948;2023-02-22T09:16:34;60;46;30
24012;PMS7003;12220;50.194;18.948;2023-02-22T09:18:42;63;49;32
24012;PMS7003;12220;50.194;18.948;2023-02-22T09:20:44;63;47;31
24012;PMS7003;12220;50.194;18.948;2023-02-22T09:22:46;62;46;30
24012;PMS7003;12220;50.194;18.948;2023-02-22T09:24:50;62;47;32
24012;PMS7003;12220;50.194;18.948;2023-02-22T09:26:57;54;43;30
24012;PMS7003;12220;50.194;18.948;2023-02-22T09:29:00;68;49;30
24012;PMS7003;12220;50.194;18.948;2023-02-22T09:31:01;61;50;31
24012;PMS7003;12220;50.194;18.948;2023-02-22T09:33:13;63;47;29
24012;PMS7003;12220;50.194;18.948;2023-02-22T09:35:17;56;43;29
24012;PMS7003;12220;50.194;18.948;2023-02-22T09:37:19;56;44;29
24012;PMS7003;12220;50.194;18.948;2023-02-22T09:43:52;55;46;30
24012;PMS7003;12220;50.194;18.948;2023-02-22T09:46:04;54;42;27
24012;PMS7003;12220;50.194;18.948;2023-02-22T09:48:18;57;40;25
24012;PMS7003;12220;50.194;18.948;2023-02-22T09:50:24;50;39;24
24012;PMS7003;12220;50.194;18.948;2023-02-22T09:52:31;47;37;23
24012;PMS7003;12220;50.194;18.948;2023-02-22T09:54:44;38;30;21
24012;PMS7003;12220;50.194;18.948;2023-02-22T09:56:52;30;23;17
24012;PMS7003;12220;50.194;18.948;2023-02-22T09:59:01;23;23;15
24012;PMS7003;12220;50.194;18.948;2023-02-22T10:01:13;24;20;14
24012;PMS7003;12220;50.194;18.948;2023-02-22T10:03:23;18;17;12
24012;PMS7003;12220;50.194;18.948;2023-02-22T10:05:33;13;13;11
24012;PMS7003;12220;50.194;18.948;2023-02-22T10:07:45;17;16;12
24012;PMS7003;12220;50.194;18.948;2023-02-22T10:09:53;21;17;13
24012;PMS7003;12220;50.194;18.948;2023-02-22T10:11:58;19;16;10
24012;PMS7003;12220;50.194;18.948;2023-02-22T10:28:27;22;21;15
24012;PMS7003;12220;50.194;18.948;2023-02-22T10:30:53;23;18;14
24012;PMS7003;12220;50.194;18.948;2023-02-22T10:33:11;26;24;15
24012;PMS7003;12220;50.194;18.948;2023-02-22T10:35:19;25;21;17
24012;PMS7003;12220;50.194;18.948;2023-02-22T10:37:28;23;22;15
24012;PMS7003;12220;50.194;18.948;2023-02-22T10:39:35;15;15;13
24012;PMS7003;12220;50.194;18.948;2023-02-22T10:41:43;29;17;10
24012;PMS7003;12220;50.194;18.948;2023-02-22T10:43:53;18;18;12
24012;PMS7003;12220;50.194;18.948;2023-02-22T10:45:57;20;18;13
24012;PMS7003;12220;50.194;18.948;2023-02-22T10:50:33;14;13;7
24012;PMS7003;12220;50.194;18.948;2023-02-22T10:52:37;10;9;6
24012;PMS7003;12220;50.194;18.948;2023-02-22T10:54:39;8;8;7
24012;PMS7003;12220;50.194;18.948;2023-02-22T10:56:46;9;9;6
24012;PMS7003;12220;50.194;18.948;2023-02-22T11:01:00;8;5;4
24012;PMS7003;12220;50.194;18.948;2023-02-22T11:03:17;7;5;4
24012;PMS7003;12220;50.194;18.948;2023-02-22T11:07:38;5;5;4
24012;PMS7003;12220;50.194;18.948;2023-02-22T11:09:46;7;5;4
24012;PMS7003;12220;50.194;18.948;2023-02-22T11:12:05;5;5;4
24012;PMS7003;12220;50.194;18.948;2023-02-22T11:14:02;4;4;3
24012;PMS7003;12220;50.194;18.948;2023-02-22T11:16:26;4;4;2
24012;PMS7003;12220;50.194;18.948;2023-02-22T11:18:23;5;5;4
24012;PMS7003;12220;50.194;18.948;2023-02-22T11:20:37;4;4;4
24012;PMS7003;12220;50.194;18.948;2023-02-22T11:22:40;4;4;2
24012;PMS7003;12220;50.194;18.948;2023-02-22T11:24:46;5;3;3
24012;PMS7003;12220;50.194;18.948;2023-02-22T11:27:00;8;7;5
24012;PMS7003;12220;50.194;18.948;2023-02-22T11:29:09;3;3;2
24012;PMS7003;12220;50.194;18.948;2023-02-22T11:31:20;4;3;2
24012;PMS7003;12220;50.194;18.948;2023-02-22T11:33:35;2;2;2
24012;PMS7003;12220;50.194;18.948;2023-02-22T11:35:47;8;5;4
24012;PMS7003;12220;50.194;18.948;2023-02-22T11:37:52;2;2;1
24012;PMS7003;12220;50.194;18.948;2023-02-22T11:40:06;8;4;3
24012;PMS7003;12220;50.194;18.948;2023-02-22T11:44:29;4;2;2
24012;PMS7003;12220;50.194;18.948;2023-02-22T11:46:41;2;2;2
24012;PMS7003;12220;50.194;18.948;2023-02-22T11:48:45;3;3;2
24012;PMS7003;12220;50.194;18.948;2023-02-22T11:55:30;4;4;3
24012;PMS7003;12220;50.194;18.948;2023-02-22T11:57:38;4;3;3
24012;PMS7003;12220;50.194;18.948;2023-02-22T12:06:52;6;4;3
24012;PMS7003;12220;50.194;18.948;2023-02-22T12:09:12;9;8;6
24012;PMS7003;12220;50.194;18.948;2023-02-22T12:13:54;8;6;5
24012;PMS7003;12220;50.194;18.948;2023-02-22T12:16:16;6;5;4
24012;PMS7003;12220;50.194;18.948;2023-02-22T12:18:36;9;9;7
24012;PMS7003;12220;50.194;18.948;2023-02-22T12:20:56;9;9;6
24012;PMS7003;12220;50.194;18.948;2023-02-22T12:23:05;9;7;5
24012;PMS7003;12220;50.194;18.948;2023-02-22T12:25:17;6;6;5
24012;PMS7003;12220;50.194;18.948;2023-02-22T12:50:53;6;5;4
24012;PMS7003;12220;50.194;18.948;2023-02-22T12:53:05;3;3;3
24012;PMS7003;12220;50.194;18.948;2023-02-22T12:55:22;8;7;5
24012;PMS7003;12220;50.194;18.948;2023-02-22T12:59:46;11;7;6
24012;PMS7003;12220;50.194;18.948;2023-02-22T13:01:52;10;8;6
24012;PMS7003;12220;50.194;18.948;2023-02-22T13:04:00;13;8;7
24012;PMS7003;12220;50.194;18.948;2023-02-22T13:08:36;6;6;5
24012;PMS7003;12220;50.194;18.948;2023-02-22T13:11:00;11;11;6
24012;PMS7003;12220;50.194;18.948;2023-02-22T13:13:21;10;10;7
24012;PMS7003;12220;50.194;18.948;2023-02-22T13:20:25;9;5;3
24012;PMS7003;12220;50.194;18.948;2023-02-22T13:22:42;8;8;6
24012;PMS7003;12220;50.194;18.948;2023-02-22T13:27:06;11;9;6
24012;PMS7003;12220;50.194;18.948;2023-02-22T13:29:33;11;9;7
24012;PMS7003;12220;50.194;18.948;2023-02-22T13:38:24;9;9;7
24012;PMS7003;12220;50.194;18.948;2023-02-22T13:43:08;15;12;7
24012;PMS7003;12220;50.194;18.948;2023-02-22T13:52:28;16;13;10
24012;PMS7003;12220;50.194;18.948;2023-02-22T13:56:50;15;12;7
24012;PMS7003;12220;50.194;18.948;2023-02-22T13:58:56;15;11;8
24012;PMS7003;12220;50.194;18.948;2023-02-22T14:01:13;8;8;5
24012;PMS7003;12220;50.194;18.948;2023-02-22T14:07:59;14;13;9
24012;PMS7003;12220;50.194;18.948;2023-02-22T14:10:33;14;13;10
24012;PMS7003;12220;50.194;18.948;2023-02-22T14:14:29;11;11;8
24012;PMS7003;12220;50.194;18.948;2023-02-22T14:16:31;11;9;6
24012;PMS7003;12220;50.194;18.948;2023-02-22T14:18:43;14;10;7
24012;PMS7003;12220;50.194;18.948;2023-02-22T14:27:37;11;9;8
24012;PMS7003;12220;50.194;18.948;2023-02-22T14:32:11;11;11;9
24012;PMS7003;12220;50.194;18.948;2023-02-22T14:34:15;9;9;7
24012;PMS7003;12220;50.194;18.948;2023-02-22T14:38:28;11;11;7
24012;PMS7003;12220;50.194;18.948;2023-02-22T14:40:30;12;12;9
24012;PMS7003;12220;50.194;18.948;2023-02-22T14:42:35;15;13;10
24012;PMS7003;12220;50.194;18.948;2023-02-22T14:47:23;12;11;8
24012;PMS7003;12220;50.194;18.948;2023-02-22T14:49:39;11;8;6
24012;PMS7003;12220;50.194;18.948;2023-02-22T14:51:48;12;12;10
24012;PMS7003;12220;50.194;18.948;2023-02-22T14:58:23;7;7;5
24012;PMS7003;12220;50.194;18.948;2023-02-22T15:02:42;18;14;11
24012;PMS7003;12220;50.194;18.948;2023-02-22T15:06:53;12;10;7
24012;PMS7003;12220;50.194;18.948;2023-02-22T15:11:11;14;11;8
24012;PMS7003;12220;50.194;18.948;2023-02-22T15:13:22;16;13;10
24012;PMS7003;12220;50.194;18.948;2023-02-22T15:15:26;12;11;8
24012;PMS7003;12220;50.194;18.948;2023-02-22T15:17:27;16;14;11
24012;PMS7003;12220;50.194;18.948;2023-02-22T15:19:30;17;17;11
24012;PMS7003;12220;50.194;18.948;2023-02-22T15:21:34;19;19;13
24012;PMS7003;12220;50.194;18.948;2023-02-22T15:25:45;31;25;15
24012;PMS7003;12220;50.194;18.948;2023-02-22T15:27:48;28;24;17
24012;PMS7003;12220;50.194;18.948;2023-02-22T15:29:55;27;21;13
24012;PMS7003;12220;50.194;18.948;2023-02-22T15:34:33;15;14;10
24012;PMS7003;12220;50.194;18.948;2023-02-22T15:36:35;18;15;11
24012;PMS7003;12220;50.194;18.948;2023-02-22T15:38:37;12;12;10
24012;PMS7003;12220;50.194;18.948;2023-02-22T15:40:39;16;13;9
24012;PMS7003;12220;50.194;18.948;2023-02-22T15:42:50;7;7;7
24012;PMS7003;12220;50.194;18.948;2023-02-22T15:44:57;15;13;9
24012;PMS7003;12220;50.194;18.948;2023-02-22T15:46:59;16;12;9
24012;PMS7003;12220;50.194;18.948;2023-02-22T15:49:04;13;13;10
24012;PMS7003;12220;50.194;18.948;2023-02-22T15:51:12;15;11;10
24012;PMS7003;12220;50.194;18.948;2023-02-22T15:53:26;11;11;8
24012;PMS7003;12220;50.194;18.948;2023-02-22T15:55:46;12;9;8
24012;PMS7003;12220;50.194;18.948;2023-02-22T15:57:54;12;10;8
24012;PMS7003;12220;50.194;18.948;2023-02-22T15:59:58;11;10;8
24012;PMS7003;12220;50.194;18.948;2023-02-22T16:02:01;11;10;9
24012;PMS7003;12220;50.194;18.948;2023-02-22T16:08:49;10;10;8
24012;PMS7003;12220;50.194;18.948;2023-02-22T16:13:06;12;12;9
24012;PMS7003;12220;50.194;18.948;2023-02-22T16:15:15;14;14;8
24012;PMS7003;12220;50.194;18.948;2023-02-22T16:23:53;9;9;7
24012;PMS7003;12220;50.194;18.948;2023-02-22T16:30:31;15;14;9
24012;PMS7003;12220;50.194;18.948;2023-02-22T16:32:40;22;14;9
24012;PMS7003;12220;50.194;18.948;2023-02-22T16:34:42;17;14;8
24012;PMS7003;12220;50.194;18.948;2023-02-22T16:36:44;15;13;9
24012;PMS7003;12220;50.194;18.948;2023-02-22T16:38:50;16;16;12
24012;PMS7003;12220;50.194;18.948;2023-02-22T16:40:55;15;13;10
24012;PMS7003;12220;50.194;18.948;2023-02-22T16:42:58;16;12;7
24012;PMS7003;12220;50.194;18.948;2023-02-22T16:45:02;16;15;9
24012;PMS7003;12220;50.194;18.948;2023-02-22T16:47:04;19;15;12
24012;PMS7003;12220;50.194;18.948;2023-02-22T16:49:11;19;17;12
24012;PMS7003;12220;50.194;18.948;2023-02-22T16:51:20;22;18;9
24012;PMS7003;12220;50.194;18.948;2023-02-22T16:53:26;17;17;11
24012;PMS7003;12220;50.194;18.948;2023-02-22T16:55:32;19;18;13
24012;PMS7003;12220;50.194;18.948;2023-02-22T16:57:36;22;17;13
24012;PMS7003;12220;50.194;18.948;2023-02-22T16:59:39;15;13;11
24012;PMS7003;12220;50.194;18.948;2023-02-22T17:01:41;14;12;10
24012;PMS7003;12220;50.194;18.948;2023-02-22T17:03:43;18;17;11
24012;PMS7003;12220;50.194;18.948;2023-02-22T17:05:46;17;17;11
24012;PMS7003;12220;50.194;18.948;2023-02-22T17:07:47;17;15;10
24012;PMS7003;12220;50.194;18.948;2023-02-22T17:09:48;16;15;11
24012;PMS7003;12220;50.194;18.948;2023-02-22T17:11:53;16;14;11
24012;PMS7003;12220;50.194;18.948;2023-02-22T17:14:01;15;15;12
24012;PMS7003;12220;50.194;18.948;2023-02-22T17:16:02;14;8;7
24012;PMS7003;12220;50.194;18.948;2023-02-22T17:18:14;18;14;9
24012;PMS7003;12220;50.194;18.948;2023-02-22T17:20:22;18;17;11
24012;PMS7003;12220;50.194;18.948;2023-02-22T17:22:29;24;18;12
24012;PMS7003;12220;50.194;18.948;2023-02-22T17:24:37;25;19;14
24012;PMS7003;12220;50.194;18.948;2023-02-22T17:26:39;19;19;14
24012;PMS7003;12220;50.194;18.948;2023-02-22T17:28:41;25;21;16
24012;PMS7003;12220;50.194;18.948;2023-02-22T17:30:46;21;19;12
24012;PMS7003;12220;50.194;18.948;2023-02-22T17:32:53;20;18;15
24012;PMS7003;12220;50.194;18.948;2023-02-22T17:35:15;19;16;11
24012;PMS7003;12220;50.194;18.948;2023-02-22T17:37:19;21;19;13
24012;PMS7003;12220;50.194;18.948;2023-02-22T17:39:20;20;19;13
24012;PMS7003;12220;50.194;18.948;2023-02-22T17:41:22;26;23;13
24012;PMS7003;12220;50.194;18.948;2023-02-22T17:43:28;22;19;12
24012;PMS7003;12220;50.194;18.948;2023-02-22T17:45:30;23;23;13
24012;PMS7003;12220;50.194;18.948;2023-02-22T17:47:31;29;21;16
24012;PMS7003;12220;50.194;18.948;2023-02-22T17:49:33;32;30;21
24012;PMS7003;12220;50.194;18.948;2023-02-22T17:51:45;32;28;17
24012;PMS7003;12220;50.194;18.948;2023-02-22T17:53:49;35;25;16